Time,TemperatureF,DewpointF,PressureIn,WindDirection,WindDirectionDegrees,WindSpeedMPH,WindSpeedGustMPH,Humidity,HourlyPrecipIn,Conditions,Clouds,dailyrainin,SoftwareType,DateUTC
2013-05-24 00:02:00,59.4,54.1,29.87,SE,145,6.0,7.0,83,0.00,,,0.13,meteohub,2013-05-24 04:02:00,
2013-05-24 00:07:00,59.4,54.1,29.87,SSE,168,4.0,7.0,83,0.00,,,0.00,meteohub,2013-05-24 04:07:00,
2013-05-24 00:12:00,59.2,54.0,29.87,SSE,168,7.0,7.0,83,0.00,,,0.00,meteohub,2013-05-24 04:12:00,
2013-05-24 00:17:00,59.2,54.0,29.87,SSW,212,2.0,8.0,83,0.00,,,0.00,meteohub,2013-05-24 04:17:00,
2013-05-24 00:22:00,59.0,53.8,29.87,WNW,302,4.0,8.0,83,0.00,,,0.00,meteohub,2013-05-24 04:22:00,
2013-05-24 00:27:00,59.0,53.6,29.87,SSW,212,5.0,8.0,82,0.00,,,0.00,meteohub,2013-05-24 04:27:00,
2013-05-24 00:32:00,58.6,53.4,29.87,South,190,0.0,8.0,83,0.00,,,0.00,meteohub,2013-05-24 04:32:00,
2013-05-24 00:37:00,58.6,53.4,29.87,West,280,2.0,8.0,83,0.00,,,0.00,meteohub,2013-05-24 04:37:00,
2013-05-24 00:42:00,58.6,53.4,29.87,South,190,8.0,8.0,83,0.00,,,0.00,meteohub,2013-05-24 04:42:00,
2013-05-24 00:47:00,58.6,53.2,29.87,ENE,78,5.0,8.0,82,0.00,,,0.00,meteohub,2013-05-24 04:47:00,
2013-05-24 00:52:00,58.8,53.1,29.87,West,280,6.0,12.0,81,0.00,,,0.00,meteohub,2013-05-24 04:52:00,
2013-05-24 00:57:00,58.8,53.4,29.87,SE,145,8.0,12.0,82,0.00,,,0.00,meteohub,2013-05-24 04:57:00,
2013-05-24 01:02:00,58.6,53.2,29.87,SE,145,6.0,12.0,82,0.00,,,0.00,meteohub,2013-05-24 05:02:00,
2013-05-24 01:07:00,58.6,53.2,29.87,WNW,302,4.0,9.0,82,0.00,,,0.00,meteohub,2013-05-24 05:07:00,
2013-05-24 01:12:00,58.6,52.9,29.87,NW,325,4.0,10.0,81,0.00,,,0.00,meteohub,2013-05-24 05:12:00,
2013-05-24 01:17:00,58.5,52.7,29.87,South,190,0.0,10.0,81,0.00,,,0.00,meteohub,2013-05-24 05:17:00,
2013-05-24 01:22:00,58.3,52.5,29.87,SSW,212,4.0,10.0,81,0.00,,,0.00,meteohub,2013-05-24 05:22:00,
2013-05-24 01:27:00,58.3,52.9,29.90,South,190,0.0,7.0,82,0.00,,,0.00,meteohub,2013-05-24 05:27:00,
2013-05-24 01:32:00,58.1,52.7,29.90,WNW,302,4.0,6.0,82,0.00,,,0.00,meteohub,2013-05-24 05:32:00,
2013-05-24 01:37:00,58.1,52.3,29.90,NNW,348,0.0,7.0,81,0.00,,,0.00,meteohub,2013-05-24 05:37:00,
2013-05-24 01:42:00,58.1,52.7,29.87,SSE,168,4.0,7.0,82,0.00,,,0.00,meteohub,2013-05-24 05:42:00,
2013-05-24 01:47:00,57.9,52.5,29.87,South,190,8.0,8.0,82,0.00,,,0.00,meteohub,2013-05-24 05:47:00,
2013-05-24 01:52:00,57.9,52.5,29.87,SSE,168,2.0,8.0,82,0.00,,,0.00,meteohub,2013-05-24 05:52:00,
2013-05-24 01:57:00,57.9,52.5,29.87,NNW,348,0.0,8.0,82,0.00,,,0.00,meteohub,2013-05-24 05:57:00,
2013-05-24 02:02:00,57.9,52.9,29.87,South,190,0.0,8.0,83,0.00,,,0.00,meteohub,2013-05-24 06:02:00,
2013-05-24 02:07:00,57.9,52.9,29.87,ESE,122,3.0,5.0,83,0.00,,,0.00,meteohub,2013-05-24 06:07:00,
2013-05-24 02:12:00,57.9,52.9,29.84,SE,145,5.0,5.0,83,0.00,,,0.00,meteohub,2013-05-24 06:12:00,
2013-05-24 02:17:00,57.9,52.9,29.84,SE,145,3.0,5.0,83,0.00,,,0.00,meteohub,2013-05-24 06:17:00,
2013-05-24 02:22:00,57.7,52.7,29.84,SE,145,5.0,5.0,83,0.00,,,0.00,meteohub,2013-05-24 06:22:00,
2013-05-24 02:27:00,57.9,52.9,29.84,East,100,7.0,7.0,83,0.00,,,0.00,meteohub,2013-05-24 06:27:00,
2013-05-24 02:32:00,58.1,52.3,29.84,SSE,168,5.0,9.0,81,0.00,,,0.00,meteohub,2013-05-24 06:32:00,
2013-05-24 02:37:00,58.1,52.3,29.84,ESE,122,3.0,11.0,81,0.00,,,0.00,meteohub,2013-05-24 06:37:00,
2013-05-24 02:42:00,57.9,52.5,29.87,South,190,6.0,12.0,82,0.00,,,0.00,meteohub,2013-05-24 06:42:00,
2013-05-24 02:47:00,58.1,52.3,29.87,SW,235,6.0,12.0,81,0.00,,,0.00,meteohub,2013-05-24 06:47:00,
2013-05-24 02:52:00,57.9,52.2,29.87,ESE,122,6.0,8.0,81,0.00,,,0.00,meteohub,2013-05-24 06:52:00,
2013-05-24 02:57:00,58.1,52.0,29.84,South,190,8.0,12.0,80,0.00,,,0.00,meteohub,2013-05-24 06:57:00,
2013-05-24 03:02:00,58.1,51.6,29.84,SSE,168,4.0,13.0,79,0.00,,,0.00,meteohub,2013-05-24 07:02:00,
2013-05-24 03:07:00,57.9,52.2,29.84,SSW,212,4.0,13.0,81,0.00,,,0.00,meteohub,2013-05-24 07:07:00,
2013-05-24 03:12:00,57.9,52.2,29.84,NW,325,0.0,13.0,81,0.00,,,0.00,meteohub,2013-05-24 07:12:00,
2013-05-24 03:17:00,57.7,52.0,29.84,WNW,302,0.0,8.0,81,0.00,,,0.00,meteohub,2013-05-24 07:17:00,
2013-05-24 03:22:00,57.7,52.3,29.84,South,190,0.0,8.0,82,0.00,,,0.00,meteohub,2013-05-24 07:22:00,
2013-05-24 03:27:00,57.9,52.5,29.84,SE,145,0.0,0.0,82,0.00,,,0.00,meteohub,2013-05-24 07:27:00,
2013-05-24 03:32:00,57.7,52.7,29.84,SE,145,0.0,4.0,83,0.00,,,0.00,meteohub,2013-05-24 07:32:00,
2013-05-24 03:37:00,57.7,52.7,29.84,SE,145,2.0,4.0,83,0.00,,,0.00,meteohub,2013-05-24 07:37:00,
2013-05-24 03:42:00,57.6,52.5,29.84,SE,145,0.0,5.0,83,0.00,,,0.00,meteohub,2013-05-24 07:42:00,
2013-05-24 03:47:00,57.6,52.7,29.84,SE,145,0.0,5.0,84,0.00,,,0.00,meteohub,2013-05-24 07:47:00,
2013-05-24 03:52:00,57.6,52.7,29.84,South,190,0.0,4.0,84,0.00,,,0.00,meteohub,2013-05-24 07:52:00,
2013-05-24 03:57:00,57.4,52.5,29.84,West,280,11.0,0.0,84,0.00,,,0.00,meteohub,2013-05-24 07:57:00,
2013-05-24 04:02:00,57.4,52.0,29.84,SW,235,5.0,16.0,82,0.00,,,0.00,meteohub,2013-05-24 08:02:00,
2013-05-24 04:07:00,57.4,52.0,29.84,West,280,8.0,16.0,82,0.00,,,0.00,meteohub,2013-05-24 08:07:00,
2013-05-24 04:12:00,57.2,51.8,29.84,SSW,212,4.0,16.0,82,0.00,,,0.00,meteohub,2013-05-24 08:12:00,
2013-05-24 04:17:00,57.2,51.8,29.84,North,10,9.0,15.0,82,0.00,,,0.00,meteohub,2013-05-24 08:17:00,
2013-05-24 04:22:00,56.8,51.8,29.84,WNW,302,8.0,15.0,83,0.00,,,0.00,meteohub,2013-05-24 08:22:00,
2013-05-24 04:27:00,57.0,51.3,29.84,North,10,7.0,16.0,81,0.00,,,0.00,meteohub,2013-05-24 08:27:00,
2013-05-24 04:32:00,56.8,51.1,29.84,West,280,3.0,16.0,81,0.00,,,0.00,meteohub,2013-05-24 08:32:00,
2013-05-24 04:37:00,56.7,50.9,29.84,WNW,302,0.0,16.0,81,0.00,,,0.00,meteohub,2013-05-24 08:37:00,
2013-05-24 04:42:00,56.7,51.3,29.84,ESE,122,2.0,11.0,82,0.00,,,0.00,meteohub,2013-05-24 08:42:00,
2013-05-24 04:47:00,56.7,51.3,29.84,NNW,348,9.0,9.0,82,0.00,,,0.00,meteohub,2013-05-24 08:47:00,
2013-05-24 04:52:00,56.5,51.1,29.84,West,280,6.0,13.0,82,0.00,,,0.00,meteohub,2013-05-24 08:52:00,
2013-05-24 04:57:00,55.8,48.7,29.87,West,280,13.0,20.0,77,0.00,,,0.00,meteohub,2013-05-24 08:57:00,
2013-05-24 05:02:00,55.6,47.8,29.87,NW,325,8.0,22.0,75,0.00,,,0.00,meteohub,2013-05-24 09:02:00,
2013-05-24 05:07:00,55.2,47.1,29.87,NNW,348,15.0,22.0,74,0.00,,,0.00,meteohub,2013-05-24 09:07:00,
2013-05-24 05:12:00,54.9,46.8,29.87,NNW,348,8.0,22.0,74,0.00,,,0.00,meteohub,2013-05-24 09:12:00,
2013-05-24 05:17:00,54.5,46.0,29.87,NW,325,4.0,21.0,73,0.00,,,0.00,meteohub,2013-05-24 09:17:00,
2013-05-24 05:22:00,54.3,45.9,29.87,NNW,348,10.0,19.0,73,0.04,,,0.04,meteohub,2013-05-24 09:22:00,
2013-05-24 05:27:00,54.1,45.7,29.87,NNE,32,14.0,20.0,73,0.04,,,0.04,meteohub,2013-05-24 09:27:00,
2013-05-24 05:32:00,54.1,46.0,29.87,North,10,19.0,20.0,74,0.04,,,0.04,meteohub,2013-05-24 09:32:00,
2013-05-24 05:37:00,53.8,45.3,29.87,NW,325,17.0,19.0,73,0.04,,,0.04,meteohub,2013-05-24 09:37:00,
2013-05-24 05:42:00,53.2,45.1,29.87,NNW,348,10.0,19.0,74,0.04,,,0.04,meteohub,2013-05-24 09:42:00,
2013-05-24 05:47:00,53.1,44.6,29.87,NNW,348,9.0,20.0,73,0.04,,,0.04,meteohub,2013-05-24 09:47:00,
2013-05-24 05:52:00,52.9,44.4,29.87,NW,325,11.0,20.0,73,0.04,,,0.04,meteohub,2013-05-24 09:52:00,
2013-05-24 05:57:00,52.0,43.3,29.93,NE,55,11.0,25.0,72,0.04,,,0.04,meteohub,2013-05-24 09:57:00,
2013-05-24 06:02:00,51.4,42.8,29.93,NNW,348,12.0,26.0,72,0.04,,,0.04,meteohub,2013-05-24 10:02:00,
2013-05-24 06:07:00,51.3,42.6,29.93,North,10,10.0,26.0,72,0.04,,,0.04,meteohub,2013-05-24 10:07:00,
2013-05-24 06:12:00,51.3,42.6,29.93,NNW,348,15.0,26.0,72,0.04,,,0.04,meteohub,2013-05-24 10:12:00,
2013-05-24 06:17:00,50.9,42.3,29.93,NW,325,9.0,22.0,72,0.00,,,0.04,meteohub,2013-05-24 10:17:00,
2013-05-24 06:22:00,50.7,42.1,29.93,NNE,32,12.0,15.0,72,0.00,,,0.04,meteohub,2013-05-24 10:22:00,
2013-05-24 06:27:00,50.4,41.7,29.93,SSW,212,6.0,16.0,72,0.00,,,0.04,meteohub,2013-05-24 10:27:00,
2013-05-24 06:32:00,50.4,42.1,29.93,SSE,168,9.0,16.0,73,0.00,,,0.04,meteohub,2013-05-24 10:32:00,
2013-05-24 06:37:00,50.2,41.9,29.93,WNW,302,11.0,16.0,73,0.00,,,0.04,meteohub,2013-05-24 10:37:00,
2013-05-24 06:42:00,50.0,41.4,29.90,ESE,122,6.0,15.0,72,0.00,,,0.04,meteohub,2013-05-24 10:42:00,
2013-05-24 06:47:00,49.8,41.5,29.90,NW,325,10.0,16.0,73,0.00,,,0.04,meteohub,2013-05-24 10:47:00,
2013-05-24 06:52:00,49.6,41.4,29.90,NNW,348,25.0,25.0,73,0.00,,,0.04,meteohub,2013-05-24 10:52:00,
2013-05-24 06:57:00,49.5,41.2,29.93,SE,145,4.0,25.0,73,0.00,,,0.04,meteohub,2013-05-24 10:57:00,
2013-05-24 07:02:00,49.3,40.3,29.93,West,280,12.0,25.0,71,0.00,,,0.04,meteohub,2013-05-24 11:02:00,
2013-05-24 07:07:00,49.5,40.8,29.93,North,10,0.0,25.0,72,0.00,,,0.04,meteohub,2013-05-24 11:07:00,
2013-05-24 07:12:00,49.6,41.4,29.93,WNW,302,2.0,18.0,73,0.00,,,0.04,meteohub,2013-05-24 11:12:00,
2013-05-24 07:17:00,49.5,41.2,29.93,NW,325,5.0,12.0,73,0.00,,,0.04,meteohub,2013-05-24 11:17:00,
2013-05-24 07:22:00,49.5,40.8,29.93,North,10,17.0,17.0,72,0.00,,,0.04,meteohub,2013-05-24 11:22:00,
2013-05-24 07:27:00,48.9,39.6,29.96,WNW,302,6.0,17.0,70,0.00,,,0.04,meteohub,2013-05-24 11:27:00,
2013-05-24 07:32:00,48.7,39.4,29.96,WNW,302,9.0,22.0,70,0.00,,,0.04,meteohub,2013-05-24 11:32:00,
2013-05-24 07:37:00,48.6,38.8,29.96,NNW,348,21.0,22.0,69,0.00,,,0.04,meteohub,2013-05-24 11:37:00,
2013-05-24 07:42:00,48.6,38.5,29.96,NNW,348,13.0,29.0,68,0.00,,,0.04,meteohub,2013-05-24 11:42:00,
2013-05-24 07:47:00,48.2,37.8,29.96,WSW,258,9.0,29.0,67,0.00,,,0.04,meteohub,2013-05-24 11:47:00,
2013-05-24 07:52:00,48.2,37.8,29.96,NW,325,10.0,29.0,67,0.00,,,0.04,meteohub,2013-05-24 11:52:00,
2013-05-24 07:57:00,48.2,37.8,29.99,North,10,14.0,26.0,67,0.00,,,0.04,meteohub,2013-05-24 11:57:00,
2013-05-24 08:02:00,48.2,37.8,29.99,North,10,6.0,21.0,67,0.00,,,0.04,meteohub,2013-05-24 12:02:00,
2013-05-24 08:07:00,48.4,37.9,29.99,ESE,122,6.0,21.0,67,0.00,,,0.04,meteohub,2013-05-24 12:07:00,
2013-05-24 08:12:00,48.2,37.8,29.99,WNW,302,17.0,20.0,67,0.00,,,0.04,meteohub,2013-05-24 12:12:00,
2013-05-24 08:17:00,47.7,36.9,29.99,SSW,212,12.0,28.0,66,0.00,,,0.04,meteohub,2013-05-24 12:17:00,
2013-05-24 08:22:00,47.5,36.3,29.99,NNW,348,35.0,35.0,65,0.00,,,0.04,meteohub,2013-05-24 12:22:00,
2013-05-24 08:27:00,47.3,36.1,29.99,NNW,348,17.0,35.0,65,0.00,,,0.04,meteohub,2013-05-24 12:27:00,
2013-05-24 08:32:00,47.1,36.0,29.99,North,10,12.0,39.0,65,0.00,,,0.04,meteohub,2013-05-24 12:32:00,
2013-05-24 08:37:00,47.1,36.3,29.99,NNW,348,5.0,39.0,66,0.00,,,0.04,meteohub,2013-05-24 12:37:00,
2013-05-24 08:47:00,47.3,36.9,29.96,WSW,258,9.0,34.0,67,0.00,,,0.04,meteohub,2013-05-24 12:47:00,
2013-05-24 08:52:00,47.3,36.5,29.96,West,280,15.0,25.0,66,0.00,,,0.04,meteohub,2013-05-24 12:52:00,
2013-05-24 08:57:00,47.5,37.4,29.99,WNW,302,6.0,23.0,68,0.00,,,0.04,meteohub,2013-05-24 12:57:00,
2013-05-24 09:02:00,47.1,36.3,29.99,WNW,302,13.0,23.0,66,0.00,,,0.04,meteohub,2013-05-24 13:02:00,
2013-05-24 09:07:00,47.5,37.4,29.99,SW,235,21.0,29.0,68,0.00,,,0.04,meteohub,2013-05-24 13:07:00,
2013-05-24 09:12:00,47.3,36.5,30.01,NNE,32,25.0,29.0,66,0.00,,,0.04,meteohub,2013-05-24 13:12:00,
2013-05-24 09:17:00,47.3,36.1,30.01,ENE,78,5.0,34.0,65,0.00,,,0.04,meteohub,2013-05-24 13:17:00,
2013-05-24 09:22:00,47.7,37.2,30.01,NW,325,13.0,34.0,67,0.00,,,0.04,meteohub,2013-05-24 13:22:00,
2013-05-24 09:27:00,47.5,36.3,30.01,WNW,302,4.0,34.0,65,0.00,,,0.04,meteohub,2013-05-24 13:27:00,
2013-05-24 09:32:00,47.5,36.7,30.01,WNW,302,9.0,22.0,66,0.00,,,0.04,meteohub,2013-05-24 13:32:00,
2013-05-24 09:37:00,47.7,37.6,30.01,West,280,2.0,22.0,68,0.00,,,0.04,meteohub,2013-05-24 13:37:00,
2013-05-24 09:42:00,47.7,37.6,30.04,North,10,10.0,22.0,68,0.00,,,0.04,meteohub,2013-05-24 13:42:00,
2013-05-24 09:47:00,47.7,37.2,30.04,North,10,11.0,21.0,67,0.00,,,0.04,meteohub,2013-05-24 13:47:00,
2013-05-24 09:52:00,47.8,38.1,30.04,WSW,258,11.0,21.0,69,0.00,,,0.04,meteohub,2013-05-24 13:52:00,
2013-05-24 09:57:00,47.5,37.0,30.04,South,190,8.0,26.0,67,0.00,,,0.04,meteohub,2013-05-24 13:57:00,
2013-05-24 10:02:00,47.7,37.6,30.04,NNE,32,6.0,26.0,68,0.00,,,0.04,meteohub,2013-05-24 14:02:00,
2013-05-24 10:07:00,47.7,37.9,30.04,WNW,302,4.0,26.0,69,0.00,,,0.04,meteohub,2013-05-24 14:07:00,
2013-05-24 10:12:00,47.3,37.2,30.04,WSW,258,5.0,17.0,68,0.00,,,0.04,meteohub,2013-05-24 14:12:00,
2013-05-24 10:17:00,47.5,37.4,30.04,WSW,258,9.0,17.0,68,0.00,,,0.04,meteohub,2013-05-24 14:17:00,
2013-05-24 10:22:00,47.7,37.9,30.04,NNW,348,3.0,17.0,69,0.00,,,0.04,meteohub,2013-05-24 14:22:00,
2013-05-24 10:27:00,47.7,37.6,30.04,WNW,302,8.0,22.0,68,0.00,,,0.04,meteohub,2013-05-24 14:27:00,
2013-05-24 10:32:00,48.0,37.9,30.04,WNW,302,11.0,22.0,68,0.00,,,0.04,meteohub,2013-05-24 14:32:00,
2013-05-24 10:37:00,48.2,38.1,30.04,NNW,348,8.0,21.0,68,0.00,,,0.04,meteohub,2013-05-24 14:37:00,
2013-05-24 10:42:00,47.8,37.4,30.01,East,100,11.0,32.0,67,0.00,,,0.04,meteohub,2013-05-24 14:42:00,
2013-05-24 10:47:00,48.0,37.9,30.01,WNW,302,9.0,32.0,68,0.00,,,0.04,meteohub,2013-05-24 14:47:00,
2013-05-24 10:52:00,47.8,37.0,30.01,NW,325,21.0,32.0,66,0.00,,,0.04,meteohub,2013-05-24 14:52:00,
2013-05-24 10:57:00,47.5,36.3,30.04,North,10,17.0,27.0,65,0.00,,,0.04,meteohub,2013-05-24 14:57:00,
2013-05-24 11:02:00,47.8,37.4,30.04,SSW,212,8.0,27.0,67,0.00,,,0.04,meteohub,2013-05-24 15:02:00,
2013-05-24 11:07:00,48.2,37.4,30.04,South,190,13.0,27.0,66,0.00,,,0.04,meteohub,2013-05-24 15:07:00,
2013-05-24 11:12:00,48.2,37.4,30.04,NW,325,11.0,27.0,66,0.00,,,0.04,meteohub,2013-05-24 15:12:00,
2013-05-24 11:17:00,47.5,37.0,30.04,NW,325,13.0,17.0,67,0.00,,,0.04,meteohub,2013-05-24 15:17:00,
2013-05-24 11:22:00,47.3,37.2,30.04,ENE,78,10.0,25.0,68,0.00,,,0.04,meteohub,2013-05-24 15:22:00,
2013-05-24 11:27:00,47.1,37.0,30.04,NW,325,4.0,25.0,68,0.00,,,0.04,meteohub,2013-05-24 15:27:00,
2013-05-24 11:32:00,47.1,37.0,30.04,NNE,32,16.0,25.0,68,0.00,,,0.04,meteohub,2013-05-24 15:32:00,
2013-05-24 11:37:00,47.1,37.0,30.04,NNE,32,13.0,16.0,68,0.00,,,0.04,meteohub,2013-05-24 15:37:00,
2013-05-24 11:42:00,47.3,37.2,30.07,WSW,258,3.0,22.0,68,0.00,,,0.04,meteohub,2013-05-24 15:42:00,
2013-05-24 11:47:00,47.3,36.9,30.07,SE,145,13.0,22.0,67,0.00,,,0.04,meteohub,2013-05-24 15:47:00,
2013-05-24 11:52:00,47.5,37.0,30.07,WSW,258,7.0,22.0,67,0.00,,,0.04,meteohub,2013-05-24 15:52:00,
2013-05-24 11:57:00,47.3,36.9,30.07,WNW,302,5.0,19.0,67,0.00,,,0.04,meteohub,2013-05-24 15:57:00,
2013-05-24 12:02:00,48.0,37.6,30.07,ESE,122,9.0,19.0,67,0.00,,,0.04,meteohub,2013-05-24 16:02:00,
2013-05-24 12:07:00,47.7,36.5,30.07,NNE,32,2.0,17.0,65,0.00,,,0.04,meteohub,2013-05-24 16:07:00,
2013-05-24 12:12:00,47.7,36.5,30.07,NNW,348,16.0,20.0,65,0.00,,,0.04,meteohub,2013-05-24 16:12:00,
2013-05-24 12:17:00,47.3,36.1,30.07,South,190,11.0,26.0,65,0.00,,,0.04,meteohub,2013-05-24 16:17:00,
2013-05-24 12:22:00,47.3,36.5,30.07,NNW,348,16.0,26.0,66,0.00,,,0.04,meteohub,2013-05-24 16:22:00,
2013-05-24 12:27:00,47.3,36.1,30.10,SW,235,9.0,26.0,65,0.00,,,0.04,meteohub,2013-05-24 16:27:00,
2013-05-24 12:32:00,47.5,36.3,30.10,NW,325,8.0,21.0,65,0.00,,,0.04,meteohub,2013-05-24 16:32:00,
2013-05-24 12:37:00,47.3,36.1,30.10,NNW,348,13.0,21.0,65,0.00,,,0.04,meteohub,2013-05-24 16:37:00,
2013-05-24 12:42:00,47.5,37.0,30.10,NW,325,8.0,31.0,67,0.00,,,0.04,meteohub,2013-05-24 16:42:00,
2013-05-24 12:47:00,47.7,37.2,30.10,SW,235,22.0,31.0,67,0.00,,,0.04,meteohub,2013-05-24 16:47:00,
2013-05-24 12:52:00,46.9,36.1,30.10,NNE,32,12.0,35.0,66,0.00,,,0.04,meteohub,2013-05-24 16:52:00,
2013-05-24 12:57:00,46.6,36.3,30.10,WNW,302,11.0,35.0,67,0.00,,,0.04,meteohub,2013-05-24 16:57:00,
2013-05-24 13:02:00,46.8,36.0,30.10,WSW,258,11.0,35.0,66,0.00,,,0.04,meteohub,2013-05-24 17:02:00,
2013-05-24 13:07:00,47.3,36.9,30.10,NNW,348,5.0,24.0,67,0.00,,,0.04,meteohub,2013-05-24 17:07:00,
2013-05-24 13:12:00,47.8,37.0,30.10,SW,235,13.0,21.0,66,0.00,,,0.04,meteohub,2013-05-24 17:12:00,
2013-05-24 13:17:00,48.2,36.7,30.10,NNW,348,9.0,20.0,64,0.00,,,0.04,meteohub,2013-05-24 17:17:00,
2013-05-24 13:22:00,49.5,37.8,30.10,NNW,348,8.0,20.0,64,0.00,,,0.04,meteohub,2013-05-24 17:22:00,
2013-05-24 13:27:00,50.2,36.9,30.10,WNW,302,14.0,17.0,60,0.00,,,0.04,meteohub,2013-05-24 17:27:00,
2013-05-24 13:32:00,50.2,35.1,30.10,NNE,32,9.0,26.0,56,0.00,,,0.04,meteohub,2013-05-24 17:32:00,
2013-05-24 13:37:00,51.3,37.0,30.10,NNW,348,12.0,26.0,58,0.00,,,0.04,meteohub,2013-05-24 17:37:00,
2013-05-24 13:42:00,50.7,35.2,30.10,NNW,348,11.0,26.0,55,0.00,,,0.04,meteohub,2013-05-24 17:42:00,
2013-05-24 13:47:00,50.0,33.6,30.10,NE,55,7.0,21.0,53,0.00,,,0.04,meteohub,2013-05-24 17:47:00,
2013-05-24 13:52:00,49.6,33.3,30.10,WNW,302,5.0,25.0,53,0.00,,,0.04,meteohub,2013-05-24 17:52:00,
2013-05-24 13:57:00,50.5,34.5,30.10,NNE,32,7.0,25.0,54,0.00,,,0.04,meteohub,2013-05-24 17:57:00,
2013-05-24 14:02:00,50.7,34.2,30.10,SSW,212,14.0,25.0,53,0.00,,,0.04,meteohub,2013-05-24 18:02:00,
2013-05-24 14:07:00,50.5,34.2,30.10,SSW,212,21.0,21.0,53,0.00,,,0.04,meteohub,2013-05-24 18:07:00,
2013-05-24 14:12:00,51.1,34.2,30.10,North,10,3.0,25.0,52,0.00,,,0.04,meteohub,2013-05-24 18:12:00,
2013-05-24 14:17:00,51.6,34.5,30.10,North,10,5.0,25.0,52,0.00,,,0.04,meteohub,2013-05-24 18:17:00,
2013-05-24 14:22:00,51.3,33.3,30.10,NNW,348,13.0,25.0,50,0.00,,,0.04,meteohub,2013-05-24 18:22:00,
2013-05-24 14:27:00,51.1,32.5,30.10,NNW,348,6.0,21.0,49,0.00,,,0.04,meteohub,2013-05-24 18:27:00,
2013-05-24 14:32:00,51.1,32.5,30.10,NNW,348,11.0,22.0,49,0.00,,,0.04,meteohub,2013-05-24 18:32:00,
2013-05-24 14:37:00,51.8,33.3,30.10,WNW,302,11.0,26.0,49,0.00,,,0.04,meteohub,2013-05-24 18:37:00,
2013-05-24 14:42:00,52.5,34.5,30.10,WNW,302,11.0,26.0,50,0.00,,,0.04,meteohub,2013-05-24 18:42:00,
2013-05-24 14:47:00,52.9,33.3,30.10,NNW,348,15.0,30.0,47,0.00,,,0.04,meteohub,2013-05-24 18:47:00,
2013-05-24 14:52:00,53.2,33.6,30.10,North,10,14.0,30.0,47,0.00,,,0.04,meteohub,2013-05-24 18:52:00,
2013-05-24 14:57:00,53.6,33.4,30.10,NNW,348,13.0,30.0,46,0.00,,,0.04,meteohub,2013-05-24 18:57:00,
2013-05-24 15:02:00,53.6,33.4,30.10,WNW,302,17.0,25.0,46,0.00,,,0.04,meteohub,2013-05-24 19:02:00,
2013-05-24 15:07:00,54.0,33.6,30.10,SW,235,8.0,24.0,46,0.00,,,0.04,meteohub,2013-05-24 19:07:00,
2013-05-24 15:12:00,54.0,33.1,30.10,SW,235,11.0,31.0,45,0.00,,,0.04,meteohub,2013-05-24 19:12:00,
2013-05-24 15:17:00,54.1,32.2,30.10,West,280,16.0,39.0,43,0.00,,,0.04,meteohub,2013-05-24 19:17:00,
2013-05-24 15:22:00,54.7,32.7,30.10,NNW,348,9.0,39.0,43,0.00,,,0.04,meteohub,2013-05-24 19:22:00,
2013-05-24 15:27:00,53.4,32.2,30.10,WNW,302,13.0,31.0,44,0.00,,,0.04,meteohub,2013-05-24 19:27:00,
2013-05-24 15:32:00,53.1,31.8,30.10,WNW,302,16.0,31.0,44,0.00,,,0.04,meteohub,2013-05-24 19:32:00,
2013-05-24 15:37:00,53.2,32.0,30.10,North,10,7.0,31.0,44,0.00,,,0.04,meteohub,2013-05-24 19:37:00,
2013-05-24 15:42:00,54.3,32.9,30.10,North,10,13.0,32.0,44,0.00,,,0.04,meteohub,2013-05-24 19:42:00,
2013-05-24 15:47:00,54.3,31.8,30.10,NNE,32,21.0,32.0,42,0.00,,,0.04,meteohub,2013-05-24 19:47:00,
2013-05-24 15:52:00,53.6,30.6,30.10,SW,235,12.0,32.0,41,0.00,,,0.04,meteohub,2013-05-24 19:52:00,
2013-05-24 15:57:00,54.5,32.0,30.10,WNW,302,11.0,44.0,42,0.00,,,0.04,meteohub,2013-05-24 19:57:00,
2013-05-24 16:02:00,54.9,32.2,30.10,NNE,32,10.0,44.0,42,0.00,,,0.04,meteohub,2013-05-24 20:02:00,
2013-05-24 16:07:00,55.2,32.0,30.10,NW,325,16.0,34.0,41,0.00,,,0.04,meteohub,2013-05-24 20:07:00,
2013-05-24 16:12:00,55.0,31.8,30.10,WNW,302,7.0,35.0,41,0.00,,,0.04,meteohub,2013-05-24 20:12:00,
2013-05-24 16:17:00,54.9,31.6,30.10,NW,325,16.0,35.0,41,0.00,,,0.04,meteohub,2013-05-24 20:17:00,
2013-05-24 16:22:00,54.5,30.7,30.10,NNW,348,16.0,35.0,40,0.00,,,0.04,meteohub,2013-05-24 20:22:00,
2013-05-24 16:27:00,55.2,31.3,30.10,NW,325,13.0,41.0,40,0.00,,,0.04,meteohub,2013-05-24 20:27:00,
2013-05-24 16:32:00,55.2,30.7,30.10,North,10,20.0,41.0,39,0.00,,,0.04,meteohub,2013-05-24 20:32:00,
2013-05-24 16:37:00,55.6,31.1,30.10,WNW,302,17.0,31.0,39,0.00,,,0.04,meteohub,2013-05-24 20:37:00,
2013-05-24 16:42:00,55.8,31.3,30.10,North,10,17.0,31.0,39,0.00,,,0.04,meteohub,2013-05-24 20:42:00,
2013-05-24 17:02:00,56.3,31.1,30.10,NW,325,21.0,31.0,38,0.00,,,0.04,meteohub,2013-05-24 21:02:00,
2013-05-24 17:07:00,56.1,31.5,30.10,SSE,168,9.0,34.0,39,0.00,,,0.04,meteohub,2013-05-24 21:07:00,
2013-05-24 17:12:00,56.1,30.9,30.10,North,10,29.0,34.0,38,0.00,,,0.04,meteohub,2013-05-24 21:12:00,
2013-05-24 17:17:00,56.3,31.1,30.10,NNW,348,13.0,34.0,38,0.00,,,0.04,meteohub,2013-05-24 21:17:00,
2013-05-24 17:22:00,56.3,30.4,30.10,WNW,302,16.0,32.0,37,0.00,,,0.04,meteohub,2013-05-24 21:22:00,
2013-05-24 17:27:00,56.7,30.7,30.10,North,10,5.0,32.0,37,0.00,,,0.04,meteohub,2013-05-24 21:27:00,
2013-05-24 17:32:00,56.3,30.4,30.10,NNW,348,10.0,22.0,37,0.00,,,0.04,meteohub,2013-05-24 21:32:00,
2013-05-24 17:37:00,56.1,30.9,30.10,North,10,15.0,31.0,38,0.00,,,0.04,meteohub,2013-05-24 21:37:00,
2013-05-24 17:47:00,56.3,31.1,30.10,NW,325,11.0,26.0,38,0.00,,,0.04,meteohub,2013-05-24 21:47:00,
2013-05-24 17:52:00,54.5,28.8,30.10,North,10,20.0,31.0,37,0.00,,,0.04,meteohub,2013-05-24 21:52:00,
2013-05-24 17:57:00,54.9,29.8,30.07,WNW,302,22.0,44.0,38,0.00,,,0.04,meteohub,2013-05-24 21:57:00,
2013-05-24 18:02:00,54.1,29.1,30.07,NNW,348,21.0,44.0,38,0.00,,,0.04,meteohub,2013-05-24 22:02:00,
2013-05-24 18:07:00,54.0,28.9,30.07,WNW,302,9.0,25.0,38,0.00,,,0.04,meteohub,2013-05-24 22:07:00,
2013-05-24 18:12:00,53.6,28.6,30.10,WNW,302,10.0,25.0,38,0.00,,,0.04,meteohub,2013-05-24 22:12:00,
2013-05-24 18:17:00,53.4,28.6,30.10,North,10,16.0,25.0,38,0.00,,,0.04,meteohub,2013-05-24 22:17:00,
2013-05-24 18:22:00,53.2,28.4,30.10,West,280,10.0,25.0,38,0.00,,,0.04,meteohub,2013-05-24 22:22:00,
2013-05-24 18:27:00,53.1,28.2,30.10,NW,325,29.0,29.0,38,0.00,,,0.04,meteohub,2013-05-24 22:27:00,
2013-05-24 18:32:00,52.5,27.7,30.10,North,10,22.0,34.0,38,0.00,,,0.04,meteohub,2013-05-24 22:32:00,
2013-05-24 18:37:00,52.7,27.9,30.10,North,10,8.0,38.0,38,0.00,,,0.04,meteohub,2013-05-24 22:37:00,
2013-05-24 18:42:00,52.5,27.7,30.10,NNW,348,5.0,38.0,38,0.00,,,0.04,meteohub,2013-05-24 22:42:00,
2013-05-24 18:47:00,52.2,27.3,30.10,NE,55,11.0,27.0,38,0.00,,,0.04,meteohub,2013-05-24 22:47:00,
2013-05-24 18:52:00,52.5,27.7,30.10,NW,325,8.0,32.0,38,0.00,,,0.04,meteohub,2013-05-24 22:52:00,
2013-05-24 18:57:00,52.5,28.4,30.10,WSW,258,9.0,32.0,39,0.00,,,0.04,meteohub,2013-05-24 22:57:00,
2013-05-24 19:02:00,52.5,27.7,30.10,NW,325,8.0,29.0,38,0.00,,,0.04,meteohub,2013-05-24 23:02:00,
2013-05-24 19:07:00,51.6,27.5,30.10,NNW,348,6.0,23.0,39,0.00,,,0.04,meteohub,2013-05-24 23:07:00,
2013-05-24 19:12:00,51.4,27.3,30.13,WSW,258,7.0,19.0,39,0.00,,,0.04,meteohub,2013-05-24 23:12:00,
2013-05-24 19:17:00,50.9,27.0,30.13,NW,325,11.0,20.0,39,0.00,,,0.04,meteohub,2013-05-24 23:17:00,
2013-05-24 19:22:00,50.5,27.1,30.13,NNW,348,20.0,20.0,40,0.00,,,0.04,meteohub,2013-05-24 23:22:00,
2013-05-24 19:27:00,50.7,27.3,30.13,NW,325,13.0,21.0,40,0.00,,,0.04,meteohub,2013-05-24 23:27:00,
2013-05-24 19:32:00,50.7,27.3,30.13,NNW,348,22.0,24.0,40,0.00,,,0.04,meteohub,2013-05-24 23:32:00,
2013-05-24 19:37:00,50.5,27.1,30.13,WNW,302,9.0,24.0,40,0.00,,,0.04,meteohub,2013-05-24 23:37:00,
2013-05-24 19:42:00,50.2,26.8,30.13,WNW,302,11.0,22.0,40,0.00,,,0.04,meteohub,2013-05-24 23:42:00,
2013-05-24 19:47:00,50.2,26.8,30.13,NNW,348,13.0,22.0,40,0.00,,,0.04,meteohub,2013-05-24 23:47:00,
2013-05-24 19:52:00,50.0,27.3,30.13,NNE,32,13.0,21.0,41,0.00,,,0.04,meteohub,2013-05-24 23:52:00,
2013-05-24 19:57:00,50.0,27.3,30.13,NNW,348,9.0,21.0,41,0.00,,,0.04,meteohub,2013-05-24 23:57:00,
2013-05-24 20:02:00,50.0,27.9,30.13,SSW,212,9.0,21.0,42,0.00,,,0.04,meteohub,2013-05-25 00:02:00,
2013-05-24 20:07:00,49.8,27.7,30.13,WNW,302,8.0,21.0,42,0.00,,,0.04,meteohub,2013-05-25 00:07:00,
2013-05-24 20:17:00,49.6,27.5,30.13,South,190,8.0,16.0,42,0.00,,,0.04,meteohub,2013-05-25 00:17:00,
2013-05-24 20:22:00,49.6,27.5,30.13,North,10,11.0,16.0,42,0.00,,,0.04,meteohub,2013-05-25 00:22:00,
2013-05-24 20:27:00,49.5,27.3,30.16,North,10,3.0,15.0,42,0.00,,,0.04,meteohub,2013-05-25 00:27:00,
2013-05-24 20:32:00,49.3,27.9,30.16,NNW,348,15.0,15.0,43,0.00,,,0.04,meteohub,2013-05-25 00:32:00,
2013-05-24 20:37:00,49.3,27.9,30.16,North,10,15.0,15.0,43,0.00,,,0.04,meteohub,2013-05-25 00:37:00,
2013-05-24 20:42:00,49.3,27.9,30.16,NNW,348,7.0,15.0,43,0.00,,,0.04,meteohub,2013-05-25 00:42:00,
2013-05-24 20:47:00,49.1,28.2,30.16,West,280,6.0,25.0,44,0.00,,,0.04,meteohub,2013-05-25 00:47:00,
2013-05-24 20:52:00,48.7,28.4,30.16,NNW,348,4.0,25.0,45,0.00,,,0.04,meteohub,2013-05-25 00:52:00,
2013-05-24 20:57:00,48.9,28.6,30.13,NW,325,3.0,17.0,45,0.00,,,0.04,meteohub,2013-05-25 00:57:00,
2013-05-24 21:02:00,48.7,28.4,30.13,WSW,258,13.0,13.0,45,0.00,,,0.04,meteohub,2013-05-25 01:02:00,
2013-05-24 21:07:00,48.6,28.2,30.13,WNW,302,2.0,13.0,45,0.00,,,0.04,meteohub,2013-05-25 01:07:00,
2013-05-24 21:12:00,48.6,28.8,30.13,NNW,348,5.0,13.0,46,0.00,,,0.04,meteohub,2013-05-25 01:12:00,
2013-05-24 21:17:00,48.4,28.6,30.13,West,280,2.0,13.0,46,0.00,,,0.04,meteohub,2013-05-25 01:17:00,
2013-05-24 21:22:00,48.0,28.8,30.13,NNE,32,4.0,8.0,47,0.00,,,0.04,meteohub,2013-05-25 01:22:00,
2013-05-24 21:27:00,48.0,28.8,30.13,NNW,348,7.0,11.0,47,0.00,,,0.04,meteohub,2013-05-25 01:27:00,
2013-05-24 21:32:00,48.0,28.8,30.13,NW,325,3.0,11.0,47,0.00,,,0.04,meteohub,2013-05-25 01:32:00,
2013-05-24 21:37:00,47.8,29.1,30.13,SSE,168,0.0,11.0,48,0.00,,,0.04,meteohub,2013-05-25 01:37:00,
2013-05-24 21:42:00,47.7,29.5,30.16,SSW,212,3.0,8.0,49,0.00,,,0.04,meteohub,2013-05-25 01:42:00,
2013-05-24 21:47:00,47.3,29.7,30.16,WNW,302,2.0,6.0,50,0.00,,,0.04,meteohub,2013-05-25 01:47:00,
2013-05-24 21:52:00,47.1,28.9,30.16,NNW,348,7.0,7.0,49,0.00,,,0.04,meteohub,2013-05-25 01:52:00,
2013-05-24 21:57:00,47.3,29.1,30.16,SSW,212,2.0,15.0,49,0.00,,,0.04,meteohub,2013-05-25 01:57:00,
2013-05-24 22:02:00,46.8,29.1,30.16,WSW,258,3.0,21.0,50,0.00,,,0.04,meteohub,2013-05-25 02:02:00,
2013-05-24 22:07:00,46.6,28.9,30.16,NE,55,5.0,21.0,50,0.00,,,0.04,meteohub,2013-05-25 02:07:00,
2013-05-24 22:17:00,46.6,29.5,30.13,NNW,348,7.0,16.0,51,0.00,,,0.04,meteohub,2013-05-25 02:17:00,
2013-05-24 22:22:00,46.8,29.7,30.13,North,10,6.0,16.0,51,0.00,,,0.04,meteohub,2013-05-25 02:22:00,
2013-05-24 22:27:00,46.8,29.1,30.16,SW,235,7.0,16.0,50,0.00,,,0.04,meteohub,2013-05-25 02:27:00,
2013-05-24 22:32:00,46.8,29.7,30.16,NNE,32,7.0,16.0,51,0.00,,,0.04,meteohub,2013-05-25 02:32:00,
2013-05-24 22:37:00,46.8,29.7,30.16,SSE,168,3.0,16.0,51,0.00,,,0.04,meteohub,2013-05-25 02:37:00,
2013-05-24 22:42:00,46.6,28.9,30.16,WNW,302,9.0,16.0,50,0.00,,,0.04,meteohub,2013-05-25 02:42:00,
2013-05-24 22:52:00,46.4,29.3,30.16,WSW,258,3.0,12.0,51,0.00,,,0.04,meteohub,2013-05-25 02:52:00,
2013-05-24 22:57:00,46.4,29.8,30.16,South,190,5.0,12.0,52,0.00,,,0.04,meteohub,2013-05-25 02:57:00,
2013-05-24 23:02:00,46.4,29.3,30.16,SE,145,6.0,12.0,51,0.00,,,0.04,meteohub,2013-05-25 03:02:00,
2013-05-24 23:07:00,46.2,29.7,30.16,East,100,4.0,15.0,52,0.00,,,0.04,meteohub,2013-05-25 03:07:00,
2013-05-24 23:12:00,46.0,29.8,30.16,SE,145,7.0,15.0,53,0.00,,,0.04,meteohub,2013-05-25 03:12:00,
2013-05-24 23:17:00,45.9,29.7,30.16,South,190,4.0,9.0,53,0.00,,,0.04,meteohub,2013-05-25 03:17:00,
2013-05-24 23:22:00,45.7,30.0,30.16,ENE,78,5.0,9.0,54,0.00,,,0.04,meteohub,2013-05-25 03:22:00,
2013-05-24 23:27:00,45.7,30.6,30.16,SW,235,12.0,12.0,55,0.00,,,0.04,meteohub,2013-05-25 03:27:00,
2013-05-24 23:32:00,45.3,30.6,30.16,ESE,122,7.0,12.0,56,0.00,,,0.04,meteohub,2013-05-25 03:32:00,
2013-05-24 23:37:00,45.3,30.2,30.16,East,100,5.0,12.0,55,0.00,,,0.04,meteohub,2013-05-25 03:37:00,
2013-05-24 23:42:00,45.1,30.4,30.16,ESE,122,3.0,12.0,56,0.00,,,0.04,meteohub,2013-05-25 03:42:00,
2013-05-24 23:47:00,45.0,30.2,30.16,SSW,212,3.0,9.0,56,0.00,,,0.04,meteohub,2013-05-25 03:47:00,
2013-05-24 23:52:00,45.0,30.2,30.16,ESE,122,5.0,8.0,56,0.00,,,0.04,meteohub,2013-05-25 03:52:00,
2013-05-24 23:57:00,44.8,30.0,30.16,SSE,168,4.0,7.0,56,0.00,,,0.04,meteohub,2013-05-25 03:57:00,